createdAt,value
2018-08-22T00:00:19.236Z,7.03
2018-08-22T00:02:48.161Z,7.77
2018-08-22T00:05:17.042Z,7.07
2018-08-22T00:07:45.905Z,7.40
2018-08-22T00:10:21.002Z,8.20
2018-08-22T00:12:49.903Z,7.83
2018-08-22T00:15:18.938Z,7.80
2018-08-22T00:17:47.816Z,6.87
2018-08-22T00:20:16.823Z,7.23
2018-08-22T00:22:45.776Z,7.43
2018-08-22T00:25:14.713Z,7.30
2018-08-22T00:27:43.754Z,8.00
2018-08-22T00:30:12.685Z,7.33
2018-08-22T00:32:41.615Z,7.33
2018-08-22T00:35:10.526Z,6.90
2018-08-22T00:37:39.471Z,7.07
2018-08-22T00:40:08.339Z,7.97
2018-08-22T00:42:37.190Z,7.43
2018-08-22T00:45:06.132Z,7.33
2018-08-22T00:47:35.101Z,7.63
2018-08-22T00:50:04.043Z,7.27
2018-08-22T00:52:32.951Z,7.70
2018-08-22T00:55:02.010Z,6.93
2018-08-22T00:57:30.911Z,7.33
2018-08-22T00:59:59.856Z,6.77
2018-08-22T01:02:28.895Z,6.87
2018-08-22T01:04:57.892Z,6.23
2018-08-22T01:07:26.937Z,7.03
2018-08-22T01:09:55.869Z,8.00
2018-08-22T01:12:24.815Z,7.50
2018-08-22T01:14:53.782Z,6.80
2018-08-22T01:17:22.849Z,6.87
2018-08-22T01:19:51.767Z,6.60
2018-08-22T01:22:20.841Z,7.20
2018-08-22T01:24:49.788Z,7.50
2018-08-22T01:27:21.593Z,6.60
2018-08-22T01:29:52.550Z,7.13
2018-08-22T01:32:21.975Z,6.93
2018-08-22T01:34:52.281Z,6.93
2018-08-22T01:37:21.305Z,7.87
2018-08-22T01:39:50.311Z,7.57
2018-08-22T01:42:19.462Z,7.10
2018-08-22T01:44:48.416Z,7.43
2018-08-22T01:47:20.288Z,7.23
2018-08-22T01:49:49.301Z,7.20
2018-08-22T01:52:18.151Z,6.87
2018-08-22T01:54:47.238Z,7.63
2018-08-22T01:57:16.164Z,7.30
2018-08-22T01:59:45.185Z,6.73
2018-08-22T02:02:14.120Z,7.00
2018-08-22T02:04:49.689Z,7.00
2018-08-22T02:07:18.577Z,7.10
2018-08-22T02:09:47.503Z,6.63
2018-08-22T02:12:16.611Z,7.67
2018-08-22T02:14:45.627Z,6.87
2018-08-22T02:17:14.493Z,7.97
2018-08-22T02:19:43.386Z,7.23
2018-08-22T02:22:12.332Z,7.60
2018-08-22T02:24:41.300Z,7.33
2018-08-22T02:27:10.284Z,7.40
2018-08-22T02:29:39.420Z,6.90
2018-08-22T02:32:08.372Z,7.03
2018-08-22T02:34:37.316Z,6.97
2018-08-22T02:37:06.367Z,7.30
2018-08-22T02:39:35.403Z,7.17
2018-08-22T02:42:04.462Z,8.00
2018-08-22T02:44:33.525Z,7.43
2018-08-22T02:47:02.611Z,7.57
2018-08-22T02:49:31.583Z,7.40
2018-08-22T02:52:00.569Z,8.17
2018-08-22T02:54:29.584Z,7.37
2018-08-22T02:56:58.572Z,7.77
2018-08-22T02:59:27.637Z,8.27
2018-08-22T03:01:56.656Z,8.20
2018-08-22T03:04:25.714Z,7.20
2018-08-22T03:06:54.636Z,26.20
2018-08-22T03:09:23.643Z,47.30
2018-08-22T03:11:52.548Z,17.73
2018-08-22T03:14:21.528Z,21.47
2018-08-22T03:16:50.518Z,20.40
2018-08-22T03:19:19.465Z,15.33
2018-08-22T03:21:48.411Z,16.10
2018-08-22T03:24:17.429Z,14.43
2018-08-22T03:26:46.522Z,14.43
2018-08-22T03:29:15.593Z,13.27
2018-08-22T03:31:44.584Z,11.97
2018-08-22T03:34:13.633Z,10.67
2018-08-22T03:36:42.535Z,10.50
2018-08-22T03:39:11.481Z,10.60
2018-08-22T03:41:40.654Z,8.63
2018-08-22T03:44:09.640Z,9.27
2018-08-22T03:46:38.745Z,8.60
2018-08-22T03:49:07.764Z,8.70
2018-08-22T03:51:36.792Z,8.27
2018-08-22T03:54:05.698Z,8.73
2018-08-22T03:56:34.647Z,7.83
2018-08-22T03:59:03.645Z,8.00
2018-08-22T04:01:32.543Z,8.93
2018-08-22T04:04:01.447Z,8.70
2018-08-22T04:06:30.375Z,9.50
2018-08-22T04:08:59.400Z,26.93
2018-08-22T04:11:28.366Z,50.40
2018-08-22T04:13:57.415Z,31.73
2018-08-22T04:16:26.508Z,12.30
2018-08-22T04:18:55.566Z,11.73
2018-08-22T04:21:24.662Z,32.73
2018-08-22T04:23:53.673Z,18.07
2018-08-22T04:26:22.872Z,25.93
2018-08-22T04:28:52.061Z,18.00
2018-08-22T04:31:21.048Z,21.13
2018-08-22T04:33:50.076Z,10.83
2018-08-22T04:36:19.301Z,11.00
2018-08-22T04:38:48.246Z,10.87
2018-08-22T04:41:17.211Z,13.53
2018-08-22T04:43:46.254Z,10.67
2018-08-22T04:46:15.264Z,11.37
2018-08-22T04:48:44.274Z,13.13
2018-08-22T04:51:13.285Z,10.07
2018-08-22T04:53:42.227Z,10.67
2018-08-22T04:56:11.239Z,12.57
2018-08-22T04:58:40.189Z,10.93
2018-08-22T05:01:09.154Z,11.43
2018-08-22T05:03:38.116Z,10.80
2018-08-22T05:06:07.308Z,11.10
2018-08-22T05:08:36.405Z,11.30
2018-08-22T05:11:05.452Z,12.70
2018-08-22T05:13:34.372Z,12.73
2018-08-22T05:16:03.419Z,11.63
2018-08-22T05:18:32.676Z,10.53
2018-08-22T05:21:01.704Z,13.37
2018-08-22T05:23:30.671Z,13.77
2018-08-22T05:25:59.665Z,14.00
2018-08-22T05:28:28.674Z,13.00
2018-08-22T05:30:57.821Z,13.33
2018-08-22T05:33:26.767Z,12.60
2018-08-22T05:35:55.812Z,15.13
2018-08-22T05:38:24.735Z,12.80
2018-08-22T05:40:54.080Z,12.30
2018-08-22T05:43:23.100Z,11.60
2018-08-22T05:45:52.160Z,13.10
2018-08-22T05:48:21.175Z,12.30
2018-08-22T05:50:50.276Z,13.33
2018-08-22T05:53:19.484Z,13.03
2018-08-22T05:55:48.483Z,13.53
2018-08-22T05:58:17.490Z,13.30
2018-08-22T06:00:46.748Z,14.13
2018-08-22T06:03:16.040Z,15.17
2018-08-22T06:05:45.360Z,14.30
2018-08-22T06:08:14.460Z,15.23
2018-08-22T06:10:43.486Z,16.83
2018-08-22T06:13:12.506Z,14.57
2018-08-22T06:15:41.468Z,14.20
2018-08-22T06:18:10.419Z,20.10
2018-08-22T06:20:39.513Z,13.83
2018-08-22T06:23:08.466Z,15.20
2018-08-22T06:25:37.563Z,15.07
2018-08-22T06:28:06.557Z,14.40
2018-08-22T06:30:35.523Z,13.80
2018-08-22T06:33:04.633Z,12.07
2018-08-22T06:35:33.637Z,13.50
2018-08-22T06:38:02.669Z,17.40
2018-08-22T06:40:31.605Z,21.77
2018-08-22T06:43:00.617Z,15.47
2018-08-22T06:45:29.623Z,13.30
2018-08-22T06:47:58.617Z,13.90
2018-08-22T06:50:27.612Z,13.37
2018-08-22T06:52:56.669Z,13.60
2018-08-22T06:55:25.827Z,12.40
2018-08-22T06:57:54.908Z,19.33
2018-08-22T07:00:23.926Z,26.40
2018-08-22T07:02:53.132Z,18.80
2018-08-22T07:05:22.187Z,16.70
2018-08-22T07:07:51.186Z,17.93
2018-08-22T07:10:20.136Z,17.17
2018-08-22T07:12:49.313Z,16.43
2018-08-22T07:15:18.285Z,15.37
2018-08-22T07:17:47.225Z,15.33
2018-08-22T07:20:16.281Z,15.33
2018-08-22T07:22:45.253Z,15.20
2018-08-22T07:25:14.424Z,30.17
2018-08-22T07:27:43.352Z,21.43
2018-08-22T07:30:12.490Z,18.97
2018-08-22T07:32:41.489Z,17.43
2018-08-22T07:35:10.422Z,17.43
2018-08-22T07:37:39.509Z,15.53
2018-08-22T07:40:08.660Z,19.47
2018-08-22T07:42:37.819Z,17.37
2018-08-22T07:45:07.505Z,17.70
2018-08-22T07:47:36.492Z,16.70
2018-08-22T07:50:06.240Z,16.47
2018-08-22T07:52:35.135Z,15.70
2018-08-22T07:55:04.161Z,16.23
2018-08-22T07:57:33.149Z,16.87
2018-08-22T08:00:02.417Z,16.70
2018-08-22T08:02:31.390Z,17.57
2018-08-22T08:05:00.347Z,16.83
2018-08-22T08:07:29.311Z,15.53
2018-08-22T08:09:58.332Z,15.80
2018-08-22T08:12:32.636Z,15.20
2018-08-22T08:15:04.485Z,14.70
2018-08-22T08:17:33.846Z,12.97
2018-08-22T08:20:02.892Z,13.13
2018-08-22T08:22:31.944Z,13.47
2018-08-22T08:25:00.923Z,13.13
2018-08-22T08:27:29.991Z,11.90
2018-08-22T08:29:59.064Z,11.30
2018-08-22T08:32:28.084Z,12.23
2018-08-22T08:34:57.035Z,12.70
2018-08-22T08:37:25.941Z,10.67
2018-08-22T08:39:54.956Z,10.17
2018-08-22T08:42:23.991Z,12.37
2018-08-22T08:44:52.954Z,10.67
2018-08-22T08:47:22.015Z,9.53
2018-08-22T08:49:51.164Z,9.23
2018-08-22T08:52:20.172Z,10.30
2018-08-22T08:54:49.269Z,10.90
2018-08-22T08:57:18.300Z,8.73
2018-08-22T08:59:47.411Z,9.13
2018-08-22T09:02:16.512Z,8.63
2018-08-22T09:04:45.493Z,9.30
2018-08-22T09:07:14.391Z,9.97
2018-08-22T09:09:43.419Z,8.13
2018-08-22T09:12:12.480Z,8.17
2018-08-22T09:14:41.444Z,8.43
2018-08-22T09:17:10.463Z,8.70
2018-08-22T09:19:39.553Z,9.27
2018-08-22T09:22:08.536Z,7.33
2018-08-22T09:24:37.524Z,7.50
2018-08-22T09:27:06.509Z,7.87
2018-08-22T09:29:35.676Z,6.67
2018-08-22T09:32:04.689Z,7.80
2018-08-22T09:34:33.705Z,8.10
2018-08-22T09:37:03.811Z,7.17
2018-08-22T09:39:32.892Z,8.20
2018-08-22T09:42:01.920Z,8.80
2018-08-22T09:44:31.020Z,8.53
2018-08-22T09:47:00.097Z,8.50
2018-08-22T09:49:29.091Z,8.30
2018-08-22T09:51:58.237Z,7.57
2018-08-22T09:54:27.472Z,8.07
2018-08-22T09:56:56.663Z,8.73
2018-08-22T09:59:25.678Z,7.87
2018-08-22T10:01:54.752Z,8.93
2018-08-22T10:04:23.753Z,7.57
2018-08-22T10:06:52.839Z,7.40
2018-08-22T10:09:23.981Z,9.27
2018-08-22T10:11:52.988Z,8.80
2018-08-22T10:14:22.055Z,8.90
2018-08-22T10:16:50.995Z,7.80
2018-08-22T10:19:19.999Z,8.30
2018-08-22T10:21:48.962Z,8.33
2018-08-22T10:24:17.937Z,8.07
2018-08-22T10:26:46.871Z,9.03
2018-08-22T10:29:15.980Z,8.97
2018-08-22T10:31:45.011Z,8.30
2018-08-22T10:34:13.999Z,9.60
2018-08-22T10:36:42.921Z,8.07
2018-08-22T10:39:12.008Z,8.20
2018-08-22T10:41:41.131Z,7.93
2018-08-22T10:44:10.640Z,8.00
2018-08-22T10:46:39.768Z,7.83
2018-08-22T10:49:08.700Z,8.47
2018-08-22T10:51:37.585Z,8.50
2018-08-22T10:54:06.782Z,8.10
2018-08-22T10:56:35.814Z,8.17
2018-08-22T10:59:04.888Z,8.43
2018-08-22T11:01:34.056Z,9.03
2018-08-22T11:04:03.102Z,9.20
2018-08-22T11:06:32.067Z,8.57
2018-08-22T11:09:01.094Z,8.50
2018-08-22T11:11:30.073Z,9.23
2018-08-22T11:13:59.124Z,8.00
2018-08-22T11:16:28.044Z,8.20
2018-08-22T11:18:56.963Z,7.97
2018-08-22T11:21:36.829Z,8.23
2018-08-22T11:24:16.761Z,9.13
2018-08-22T11:26:56.977Z,7.93
2018-08-22T11:29:36.940Z,7.60
2018-08-22T11:32:16.999Z,8.47
2018-08-22T11:34:46.964Z,8.37
2018-08-22T11:37:16.911Z,7.77
2018-08-22T11:39:47.576Z,7.57
2018-08-22T11:42:16.889Z,9.33
2018-08-22T11:44:45.836Z,8.10
2018-08-22T11:47:14.923Z,7.90
2018-08-22T11:49:43.920Z,7.67
2018-08-22T11:52:13.011Z,7.63
2018-08-22T11:54:42.164Z,8.43
2018-08-22T11:57:11.197Z,8.83
2018-08-22T11:59:40.173Z,6.90
2018-08-22T12:02:09.281Z,7.53
2018-08-22T12:04:38.244Z,9.90
2018-08-22T12:07:07.173Z,8.43
2018-08-22T12:09:36.261Z,8.33
2018-08-22T12:12:05.255Z,7.83
2018-08-22T12:14:34.311Z,7.23
2018-08-22T12:17:03.316Z,7.57
2018-08-22T12:19:32.264Z,8.60
2018-08-22T12:22:01.252Z,7.27
2018-08-22T12:24:30.204Z,7.60
2018-08-22T12:26:59.169Z,7.07
2018-08-22T12:29:28.226Z,7.80
2018-08-22T12:31:57.335Z,6.97
2018-08-22T12:34:26.316Z,6.37
2018-08-22T12:36:55.300Z,8.20
2018-08-22T12:39:24.305Z,7.70
2018-08-22T12:41:53.260Z,8.23
2018-08-22T12:44:22.336Z,8.30
2018-08-22T12:46:51.288Z,8.03
2018-08-22T12:49:20.284Z,8.03
2018-08-22T12:51:49.313Z,7.40
2018-08-22T12:54:18.366Z,8.13
2018-08-22T12:56:47.359Z,8.23
2018-08-22T12:59:16.452Z,8.27
2018-08-22T13:01:45.583Z,9.17
2018-08-22T13:04:14.593Z,7.50
2018-08-22T13:06:43.667Z,7.53
2018-08-22T13:09:12.792Z,7.73
2018-08-22T13:11:42.077Z,7.90
2018-08-22T13:14:11.154Z,8.53
2018-08-22T13:16:40.149Z,7.80
2018-08-22T13:19:09.178Z,7.83
2018-08-22T13:21:38.228Z,7.70
2018-08-22T13:24:07.236Z,7.87
2018-08-22T13:26:36.224Z,7.40
2018-08-22T13:29:05.684Z,7.90
2018-08-22T13:31:34.683Z,8.00
2018-08-22T13:34:03.612Z,7.27
2018-08-22T13:36:32.649Z,7.63
2018-08-22T13:39:01.682Z,7.87
2018-08-22T13:41:30.696Z,6.63
2018-08-22T13:43:59.704Z,6.93
2018-08-22T13:46:28.924Z,7.23
2018-08-22T13:48:57.934Z,6.97
2018-08-22T13:51:26.903Z,7.17
2018-08-22T13:53:55.828Z,7.40
2018-08-22T13:56:24.925Z,7.40
2018-08-22T13:58:54.150Z,6.83
2018-08-22T14:01:23.199Z,6.97
2018-08-22T14:03:52.292Z,7.70
2018-08-22T14:06:21.243Z,8.53
2018-08-22T14:08:50.267Z,9.03
2018-08-22T14:11:19.239Z,8.60
2018-08-22T14:13:48.267Z,8.33
2018-08-22T14:16:17.241Z,8.10
2018-08-22T14:18:46.294Z,9.73
2018-08-22T14:21:15.300Z,8.20
2018-08-22T14:23:44.260Z,9.77
2018-08-22T14:26:13.322Z,9.67
2018-08-22T14:28:42.328Z,8.97
2018-08-22T14:31:11.394Z,7.90
2018-08-22T14:33:40.326Z,7.00
2018-08-22T14:36:09.337Z,7.20
2018-08-22T14:38:38.343Z,7.07
2018-08-22T14:41:07.282Z,8.03
2018-08-22T14:43:36.160Z,7.63
2018-08-22T14:46:05.075Z,7.83
2018-08-22T14:48:34.000Z,7.17
2018-08-22T14:51:02.991Z,7.47
2018-08-22T14:53:31.930Z,7.93
2018-08-22T14:56:01.121Z,7.53
2018-08-22T14:58:30.050Z,7.67
2018-08-22T15:00:59.259Z,7.77
2018-08-22T15:03:28.369Z,6.80
2018-08-22T15:05:57.080Z,7.57
2018-08-22T15:08:26.059Z,8.13
2018-08-22T15:10:54.942Z,8.30
2018-08-22T15:13:23.833Z,8.07
2018-08-22T15:15:59.159Z,7.83
2018-08-22T15:18:28.139Z,7.87
2018-08-22T15:20:57.145Z,7.63
2018-08-22T15:23:26.017Z,7.27
2018-08-22T15:25:55.000Z,8.50
2018-08-22T15:28:23.915Z,7.73
2018-08-22T15:30:52.875Z,8.43
2018-08-22T15:33:21.752Z,8.00
2018-08-22T15:35:50.669Z,7.90
2018-08-22T15:38:19.612Z,9.57
2018-08-22T15:40:48.548Z,8.80
2018-08-22T15:43:17.369Z,8.37
2018-08-22T15:45:46.319Z,8.10
2018-08-22T15:48:15.287Z,7.13
2018-08-22T15:50:44.219Z,7.20
2018-08-22T15:53:13.149Z,7.97
2018-08-22T15:55:41.983Z,8.63
2018-08-22T15:58:10.900Z,8.80
2018-08-22T16:00:51.794Z,7.50
2018-08-22T16:03:21.065Z,7.10
2018-08-22T16:05:50.705Z,7.53
2018-08-22T16:08:22.351Z,8.67
2018-08-22T16:10:51.415Z,8.03
2018-08-22T16:13:25.389Z,8.10
2018-08-22T16:15:55.712Z,7.57
2018-08-22T16:18:24.661Z,7.40
2018-08-22T16:20:57.334Z,7.83
2018-08-22T16:23:29.049Z,7.70
2018-08-22T16:25:59.318Z,7.90
2018-08-22T16:28:30.288Z,7.13
2018-08-22T16:30:59.272Z,7.20
2018-08-22T16:33:28.145Z,7.80
2018-08-22T16:35:57.166Z,7.30
2018-08-22T16:38:26.128Z,7.97
2018-08-22T16:40:55.417Z,8.50
2018-08-22T16:43:41.426Z,7.50
2018-08-22T16:46:12.083Z,7.53
2018-08-22T16:48:41.990Z,7.53
2018-08-22T16:51:11.055Z,8.00
2018-08-22T16:53:40.065Z,7.07
2018-08-22T16:56:08.975Z,7.33
2018-08-22T16:58:37.887Z,6.60
2018-08-22T17:01:06.888Z,8.10
2018-08-22T17:03:35.942Z,8.00
2018-08-22T17:06:10.132Z,7.70
2018-08-22T17:08:39.167Z,6.97
2018-08-22T17:11:08.572Z,7.40
2018-08-22T17:13:47.712Z,7.23
2018-08-22T17:16:16.683Z,7.20
2018-08-22T17:18:45.650Z,7.13
2018-08-22T17:21:14.576Z,7.10
2018-08-22T17:23:43.857Z,7.53
2018-08-22T17:26:13.939Z,7.77
2018-08-22T17:28:45.156Z,8.40
2018-08-22T17:31:14.517Z,7.53
2018-08-22T17:33:45.266Z,7.20
2018-08-22T17:36:14.317Z,7.60
2018-08-22T17:45:19.750Z,7.37
2018-08-22T17:47:50.670Z,7.80
2018-08-22T17:50:19.834Z,8.37
2018-08-22T17:52:49.005Z,8.37
2018-08-22T17:55:18.228Z,8.33
2018-08-22T17:57:48.265Z,7.60
2018-08-22T18:00:17.192Z,9.23
2018-08-22T18:02:49.657Z,9.53
2018-08-22T18:05:22.317Z,9.07
2018-08-22T18:11:26.388Z,7.87
2018-08-22T18:13:58.207Z,8.53
2018-08-22T18:16:28.118Z,7.43
2018-08-22T18:18:57.010Z,8.33
2018-08-22T18:21:33.619Z,8.70
2018-08-22T18:24:02.953Z,7.67
2018-08-22T18:26:31.867Z,8.60
2018-08-22T18:29:00.732Z,8.70
2018-08-22T18:31:29.589Z,9.83
2018-08-22T18:34:00.945Z,8.43
2018-08-22T18:36:30.902Z,8.53
2018-08-22T18:39:07.948Z,9.37
2018-08-22T18:41:37.401Z,7.60
2018-08-22T18:44:06.279Z,9.13
2018-08-22T18:46:35.406Z,8.30
2018-08-22T18:49:05.691Z,9.33
2018-08-22T18:51:39.362Z,8.70
2018-08-22T18:54:10.159Z,8.23
2018-08-22T18:56:40.546Z,7.87
2018-08-22T18:59:22.640Z,8.27
2018-08-22T19:01:53.523Z,9.30
2018-08-22T19:04:25.473Z,9.10
2018-08-22T19:06:55.830Z,9.63
2018-08-22T19:09:27.554Z,9.23
2018-08-22T19:11:56.450Z,9.80
2018-08-22T19:14:37.445Z,15.30
2018-08-22T19:17:06.298Z,10.53
2018-08-22T19:19:39.660Z,10.43
2018-08-22T19:22:08.654Z,10.00
2018-08-22T19:24:37.557Z,11.07
2018-08-22T19:27:07.015Z,9.93
2018-08-22T19:29:37.086Z,9.20
2018-08-22T19:32:06.358Z,10.87
2018-08-22T19:34:35.858Z,10.73
2018-08-22T19:37:04.790Z,10.40
2018-08-22T19:39:33.838Z,10.47
2018-08-22T19:42:02.803Z,10.97
2018-08-22T19:44:31.906Z,10.87
2018-08-22T19:50:31.482Z,10.30
2018-08-22T19:53:00.306Z,10.70
2018-08-22T19:55:29.469Z,9.77
2018-08-22T19:57:58.474Z,9.57
2018-08-22T20:00:27.432Z,9.70
2018-08-22T20:02:56.559Z,10.47
2018-08-22T20:05:25.486Z,9.90
2018-08-22T20:07:54.423Z,9.13
2018-08-22T20:10:24.521Z,9.73
2018-08-22T20:12:55.780Z,9.17
2018-08-22T20:15:25.170Z,9.60
2018-08-22T20:17:54.974Z,9.53
2018-08-22T20:20:24.595Z,9.77
2018-08-22T20:22:55.612Z,10.10
2018-08-22T20:25:24.540Z,9.70
2018-08-22T20:27:58.766Z,9.23
2018-08-22T20:30:27.705Z,9.87
2018-08-22T20:33:01.667Z,9.90
2018-08-22T20:35:35.342Z,9.97
2018-08-22T20:38:06.498Z,10.30
2018-08-22T20:40:35.388Z,9.07
2018-08-22T20:43:04.459Z,8.93
2018-08-22T20:45:33.429Z,9.63
2018-08-22T20:48:07.487Z,9.77
2018-08-22T20:50:37.547Z,9.97
2018-08-22T20:53:08.103Z,9.50
2018-08-22T20:55:37.023Z,10.87
2018-08-22T20:58:06.215Z,10.10
2018-08-22T21:00:36.617Z,9.13
2018-08-22T21:03:05.597Z,9.27
2018-08-22T21:05:34.447Z,9.60
2018-08-22T21:08:03.355Z,9.43
2018-08-22T21:10:32.259Z,9.47
2018-08-22T21:13:01.210Z,9.67
2018-08-22T21:15:30.101Z,8.73
2018-08-22T21:17:59.129Z,9.00
2018-08-22T21:20:28.093Z,8.93
2018-08-22T21:22:57.697Z,8.93
2018-08-22T21:25:26.663Z,8.83
2018-08-22T21:27:55.787Z,9.03
2018-08-22T21:30:24.765Z,9.27
2018-08-22T21:32:53.632Z,8.90
2018-08-22T21:35:25.949Z,8.97
2018-08-22T21:37:59.067Z,9.43
2018-08-22T21:40:28.366Z,7.93
2018-08-22T21:42:57.334Z,8.17
2018-08-22T21:45:26.472Z,7.93
2018-08-22T21:48:10.194Z,8.63
2018-08-22T21:56:29.447Z,6.90
2018-08-22T21:58:59.279Z,7.07
2018-08-22T22:01:32.514Z,6.83
2018-08-22T22:04:01.425Z,6.80
2018-08-22T22:06:30.328Z,6.87
2018-08-22T22:08:59.409Z,6.70
2018-08-22T22:11:28.577Z,7.30
2018-08-22T22:14:08.570Z,6.23
2018-08-22T22:16:37.484Z,6.30
2018-08-22T22:19:06.544Z,8.20
2018-08-22T22:21:35.549Z,9.00
2018-08-22T22:24:04.697Z,9.27
2018-08-22T22:26:33.644Z,7.60
2018-08-22T22:29:02.522Z,8.30
2018-08-22T22:31:31.413Z,8.77
2018-08-22T22:34:04.802Z,7.43
2018-08-22T22:36:34.356Z,8.10
2018-08-22T22:39:03.522Z,8.00
2018-08-22T22:41:32.447Z,7.30
2018-08-22T22:44:01.349Z,7.40
2018-08-22T22:46:30.213Z,7.90
2018-08-22T22:48:59.150Z,7.13
2018-08-22T22:51:28.095Z,7.13
2018-08-22T22:53:57.143Z,6.40
2018-08-22T22:56:26.089Z,6.60
2018-08-22T22:58:55.015Z,6.77
2018-08-22T23:01:23.989Z,6.57
2018-08-22T23:03:52.906Z,6.00
2018-08-22T23:06:22.058Z,6.13
2018-08-22T23:08:51.020Z,6.00
2018-08-22T23:11:20.055Z,6.20
2018-08-22T23:13:49.595Z,5.60
2018-08-22T23:16:22.635Z,5.80
2018-08-22T23:18:51.807Z,4.90
2018-08-22T23:21:20.755Z,4.97
2018-08-22T23:23:49.724Z,5.03
2018-08-22T23:26:20.116Z,5.77
2018-08-22T23:28:49.227Z,4.93
2018-08-22T23:31:19.720Z,4.70
2018-08-22T23:33:48.759Z,5.03
2018-08-22T23:36:17.842Z,5.83
2018-08-22T23:38:48.047Z,5.53
2018-08-22T23:41:17.118Z,5.43
2018-08-22T23:43:52.519Z,4.90
2018-08-22T23:46:21.570Z,4.33
2018-08-22T23:48:59.486Z,5.67
2018-08-22T23:51:28.594Z,4.30
2018-08-22T23:53:59.640Z,4.80
2018-08-22T23:56:31.018Z,4.70
2018-08-22T23:59:01.714Z,4.37
